Airfield :
LOGIN :

Register | Disclaimer

   EN    FR    IT 

 










Legend :    VFR   Marginal VFR   IFR   Intensive IFR   Very Intensive IFR
Visi :
Ceiling :
>= 8 km
>= 3000ft
5 to 8 km
1000 to 3000 ft
1500m to 5 km
500 to 1000 ft
800 to 1500m
200 to 500 ft
< 800m
< 200 ft
Symbols :   Thunderstorms  Fog  Heavy snow  Heavy precipitations  Wind > 20 kt
SIGMETs :     Misc.  Thunderstorms  Icing  Turbulence  Mountain Waves  Volcanic Ashes







- Airport Elevation : 856 ft
- IATA code : VGO


LEVX - Vigo Peinador

CURRENT METAR :
  • 221800Z VRB02KT CAVOK 21/15 Q1018 NOSIG

EXPIRED METARs :
  • 221730Z 27004KT 230V310 CAVOK 22/15 Q1018 NOSIG
  • 221700Z 28004KT 240V330 CAVOK 23/15 Q1018 NOSIG
  • 221630Z VRB01KT CAVOK 24/15 Q1018 NOSIG
  • 221600Z 33004KT 280V020 CAVOK 24/14 Q1018 NOSIG
  • 221530Z 04003KT 350V100 CAVOK 24/14 Q1018 NOSIG

TAF TAF LEVX
Valid from the 22 at 18:00 until the 23 at 18:00 UTC


221700Z 2218/2318 VRB03KT CAVOK TX23/2315Z TN13/2306Z
BECMG 2312/2314 28010KT
No reported NOTAMs for that airfield.
1 SIGMET reported for the Madrid FIR (LECM) :
 
Embedded thunderstorms
LECM SIGMET 8 VALID 221800/222000 LEVA
LECM MADRID FIR/UIR EMBD TS FCST WI N4010 W00310 - N4120 W00230 - N41 W001 - N40 W00050 - N4010 W00310 TOP FL360 MOV E 15KT NC=



MET'MAP, your aeronautical weather chart ! - Copyright ORBIFLY December 2007 - Disclaimer

ORBIFLY MET'MAP TEAM :

Programming & Development : Alexandra Zaïnal
Concept & Development : Baudouin d'Aumeries
Co-Development & Prog : Marc-Olivier Méhu
Technical & hardware support : Manuel Goepfert

Contact : metmap@orbifly.com




SOURCES & CREDITS :

   NOAA